Details From TFFR - Pointe A Pitre Le Raizet
To MKJS - Montego Bay Sangster Intl
Flight Number -
Tags Generated
Created
Modified
Stats Distance 948 nm / 1,756 km
Max Altitude 0 ft / 0 m
Waypoints 5
Social Downloads 1
Likes 0
Share VATSIM

Download

Looking for another format? Having issues loading an existing format? Contact us
Advertisement - Login to hide

Notes

Generated

Route

TFFR KARIB CAY ALMUS MKJS

ID Type Via Altitude Latitude Longitude Leg Dist Tot Dist Heading (true) Name
O TFFR APT - 0 ft / 0 m 16.26830˚ -61.54794˚ - 0 nm - -
KARIB FIX - 0 ft / 0 m 17.66642˚ -69.31700˚ 454 nm 454 nm 282° / 280° -
CAY NDB - 0 ft / 0 m 18.26734˚ -73.78298˚ 257 nm 711 nm 279° / 277° CAYES NDB
ALMUS FIX - 0 ft / 0 m 18.47833˚ -77.57000˚ 216 nm 927 nm 274° / 273° -
O MKJS APT - 0 ft / 0 m 18.49873˚ -77.92482˚ 20 nm 948 nm 274° / 273° -

Altitude Profile

Advertisement - Login to hide

Weather


0- 5 10 15 20 25 30 35+ Temperature / ° C

Clouds and Precipitation
Forecast for 2017-12-12 18:00 UTC. Updated an hour ago

Ground ~20,000 ft ~40,000 ft Winds

TFFR

Details ICAO TFFR (PTP)
Name Pointe a Pitre Le Raizet
Region France (Guadeloupe, Martinique, Saint Barthélemy, Saint Martin)
Timezone America/Guadeloupe (UTC-4.0)
Stats Elevation 35 ft / 11 m (AMSL)
Location 16.265306° -61.531808°
Runways 1
Magnetic Variation 14.857° W

METAR

TFFR 121630Z AUTO 13008KT 100V170 9999 BKN035/// BKN047/// ///TCU 30/20 Q1013 TEMPO 4000 -SHRA

Decode

TAF

Not found

Departure Runways

ID Width Length Bearing (true) Bearing (mag) Surface Threshold Offset Overrun Length
11 148 ft / 45 m 11,513 ft / 3,509 m 100.94° 115.80° Asphalt 0 ft / 0 m 0 ft / 0 m
29 148 ft / 45 m 11,513 ft / 3,509 m 280.95° 295.81° Asphalt 0 ft / 0 m 0 ft / 0 m

MKJS

Details ICAO MKJS (MBJ)
Name Sangster Intl
Region Jamaica
Timezone America/Jamaica (UTC-5.0)
Stats Elevation 6 ft / 2 m (AMSL)
Location 18.503549° -77.913698°
Runways 1
Magnetic Variation 6.955° W

METAR

MKJS 121600Z 07004KT 5000 RA SCT017 OVC030 24/23 Q1014

Decode

TAF

TAF MKJS 121115Z 1212/1312 03025KT 9999 SCT020 TEMPO 1215/1219 4000 SHRA BKN018 TEMPO 1220/1224 9000 SHRA BKN018 BECMG 1301/1303 02015KT SCT020

Decode

Destination Runways

ID Width Length Bearing (true) Bearing (mag) Surface Threshold Offset Overrun Length
07 161 ft / 49 m 8,495 ft / 2,589 m 65.37° 72.32° Asphalt 220 ft / 67 m 312 ft / 95 m
25 161 ft / 49 m 8,495 ft / 2,589 m 245.37° 252.32° Asphalt 577 ft / 176 m 200 ft / 61 m

Approach Navaids

Runway Type Ident Frequency Range Bearing (true) Bearing (mag) Slope Elevation
07 Localiser ISIA 109.50 MHz 18 nm / 33 km 65.41° 72.36° - 4 ft / 1 m (AMSL)
07 Glidescope ISIA 109.50 MHz 10 nm / 19 km 65.37° 72.33° 3.00° 4 ft / 1 m (AMSL)